Time;durP1;ratioP1;P1;durP2;ratioP2;P2;SDS_P1;SDS_P2;PMS_P1;PMS_P2;Temp;Humidity;BMP_temperature;BMP_pressure;BME280_temperature;BME280_humidity;BME280_pressure;Samples;Min_cycle;Max_cycle;Signal;HPM_P1;HPM_P2
2022/09/15 00:00:42;;;;;;;;;;;;;;;;;;5001201;28;19918;-77
2022/09/15 00:03:08;;;;;;;;;;;;;;;;;;5000476;28;19924;-80
2022/09/15 00:05:33;;;;;;;;;;;;;;;;;;4989928;28;19929;-77
2022/09/15 00:07:59;;;;;;;;;;;;;;;;;;5007996;28;19914;-77
2022/09/15 00:10:25;;;;;;;;;;;;;;;;;;5006985;28;19917;-77
2022/09/15 00:12:51;;;;;;;;;;;;;;;;;;5008861;28;19945;-78
2022/09/15 00:15:17;;;;;;;;;;;;;;;;;;5007957;28;19914;-79
2022/09/15 00:17:42;;;;;;;;;;;;;;;;;;5009188;28;19921;-78
2022/09/15 00:20:08;;;;;;;;;;;;;;;;;;4992335;28;19960;-77
2022/09/15 00:22:33;;;;;;;;;;;;;;;;;;5010072;28;19914;-80
2022/09/15 00:24:59;;;;;;;;;;;;;;;;;;5007002;28;19936;-78
2022/09/15 00:27:24;;;;;;;;;;;;;;;;;;5007959;28;19924;-78
2022/09/15 00:29:50;;;;;;;;;;;;;;;;;;4989548;28;20336;-77
2022/09/15 00:32:15;;;;;;;;;;;;;;;;;;4997529;28;19922;-79
2022/09/15 00:34:41;;;;;;;;;;;;;;;;;;4992134;28;19921;-77
2022/09/15 00:37:06;;;;;;;;;;;;;;;;;;5009361;28;20000;-77
2022/09/15 00:39:32;;;;;;;;;;;;;;;;;;4975085;28;19913;-79
2022/09/15 00:41:57;;;;;;;;;;;;;;;;;;5005639;28;19948;-77
2022/09/15 00:44:23;;;;;;;;;;;;;;;;;;4988007;28;19921;-79
2022/09/15 00:46:48;;;;;;;;;;;;;;;;;;4979487;28;19950;-78
2022/09/15 00:49:14;;;;;;;;;;;;;;;;;;4993168;28;20053;-78
2022/09/15 00:51:39;;;;;;;;;;;;;;;;;;5020227;28;19921;-77
2022/09/15 00:54:05;;;;;;;;;;;;;;;;;;5002182;28;19922;-78
2022/09/15 00:56:30;;;;;;;;;;;;;;;;;;5002062;28;19936;-77
2022/09/15 00:58:56;;;;;;;;;;;;;;;;;;4971118;28;19914;-76
2022/09/15 01:01:21;;;;;;;;;;;;;;;;;;4973626;28;19981;-78
2022/09/15 01:03:47;;;;;;;;;;;;;;;;;;4972019;28;19914;-78
2022/09/15 01:06:13;;;;;;;;;;;;;;;;;;5002711;28;19913;-78
2022/09/15 01:08:38;;;;;;;;;;;;;;;;;;5004440;28;19914;-79
2022/09/15 01:11:04;;;;;;;;;;;;;;;;;;4988275;28;19917;-77
2022/09/15 01:13:30;;;;;;;;;;;;;;;;;;5003683;28;19925;-76
2022/09/15 01:15:55;;;;;;;;;;;;;;;;;;4987921;28;19914;-78
2022/09/15 01:18:20;;;;;;;;;;;;;;;;;;4986737;28;19937;-78
2022/09/15 01:20:46;;;;;;;;;;;;;;;;;;4986691;28;19910;-77
2022/09/15 01:23:12;;;;;;;;;;;;;;;;;;5006325;28;19914;-78
2022/09/15 01:25:37;;;;;;;;;;;;;;;;;;4990981;28;20017;-78
2022/09/15 01:28:03;;;;;;;;;;;;;;;;;;4988098;28;19968;-78
2022/09/15 01:30:28;;;;;;;;;;;;;;;;;;4996195;23;19929;-80
2022/09/15 01:33:03;;;;;;;;;;;;;;;;;;4994178;28;19918;-79
2022/09/15 01:35:29;;;;;;;;;;;;;;;;;;4995623;28;19921;-79
2022/09/15 01:37:55;;;;;;;;;;;;;;;;;;4994769;28;19917;-81
2022/09/15 01:40:20;;;;;;;;;;;;;;;;;;4994928;28;20300;-81
2022/09/15 01:42:46;;;;;;;;;;;;;;;;;;4995620;28;19953;-80
2022/09/15 01:45:11;;;;;;;;;;;;;;;;;;4994656;28;19921;-80
2022/09/15 01:47:36;;;;;;;;;;;;;;;;;;4995639;28;20437;-82
2022/09/15 01:50:02;;;;;;;;;;;;;;;;;;4978127;28;20456;-82
2022/09/15 01:52:28;;;;;;;;;;;;;;;;;;4996460;28;19922;-80
2022/09/15 01:54:53;;;;;;;;;;;;;;;;;;4996172;28;20016;-80
2022/09/15 01:57:21;;;;;;;;;;;;;;;;;;4994679;28;20285;-81
2022/09/15 01:59:47;;;;;;;;;;;;;;;;;;4995526;28;19914;-80
2022/09/15 02:02:12;;;;;;;;;;;;;;;;;;4995300;28;20301;-80
2022/09/15 02:04:37;;;;;;;;;;;;;;;;;;4995214;28;20305;-78
2022/09/15 02:07:05;;;;;;;;;;;;;;;;;;4995310;28;20038;-80
2022/09/15 02:09:30;;;;;;;;;;;;;;;;;;4995351;28;19914;-80
2022/09/15 02:11:55;;;;;;;;;;;;;;;;;;4995200;28;20005;-80
2022/09/15 02:14:21;;;;;;;;;;;;;;;;;;4979307;28;20456;-80
2022/09/15 02:16:46;;;;;;;;;;;;;;;;;;4987817;28;20300;-79
2022/09/15 02:19:11;;;;;;;;;;;;;;;;;;4993942;28;20282;-81
2022/09/15 02:21:39;;;;;;;;;;;;;;;;;;4995119;28;19926;-79
2022/09/15 02:24:04;;;;;;;;;;;;;;;;;;4995093;28;19968;-80
2022/09/15 02:26:30;;;;;;;;;;;;;;;;;;4994974;28;20362;-83
2022/09/15 02:28:55;;;;;;;;;;;;;;;;;;4994262;28;19921;-79
2022/09/15 02:31:20;;;;;;;;;;;;;;;;;;4993871;28;20369;-79
2022/09/15 02:33:46;;;;;;;;;;;;;;;;;;4994918;28;20345;-81
2022/09/15 02:36:11;;;;;;;;;;;;;;;;;;4993977;28;19914;-80
2022/09/15 02:38:36;;;;;;;;;;;;;;;;;;4995072;28;19917;-83
2022/09/15 02:41:02;;;;;;;;;;;;;;;;;;4995243;28;20373;-83
2022/09/15 02:43:28;;;;;;;;;;;;;;;;;;4993035;28;20055;-82
2022/09/15 02:45:53;;;;;;;;;;;;;;;;;;4994301;28;19966;-79
2022/09/15 02:48:19;;;;;;;;;;;;;;;;;;4978071;28;19914;-81
2022/09/15 02:50:44;;;;;;;;;;;;;;;;;;4995219;28;20347;-79
2022/09/15 02:53:10;;;;;;;;;;;;;;;;;;4995452;28;19914;-81
2022/09/15 02:55:35;;;;;;;;;;;;;;;;;;4994721;28;20392;-81
2022/09/15 02:58:00;;;;;;;;;;;;;;;;;;4977758;28;19921;-79
2022/09/15 03:00:27;;;;;;;;;;;;;;;;;;4985261;28;19913;-78
2022/09/15 03:02:53;;;;;;;;;;;;;;;;;;4994795;28;19918;-80
2022/09/15 03:05:18;;;;;;;;;;;;;;;;;;4993296;28;19953;-81
2022/09/15 03:07:43;;;;;;;;;;;;;;;;;;4994228;28;19956;-80
2022/09/15 03:10:09;;;;;;;;;;;;;;;;;;4993922;28;20434;-80
2022/09/15 03:12:34;;;;;;;;;;;;;;;;;;4993959;28;19918;-79
2022/09/15 03:14:59;;;;;;;;;;;;;;;;;;4992809;28;19940;-81
2022/09/15 03:17:25;;;;;;;;;;;;;;;;;;4992784;28;19963;-80
2022/09/15 03:19:50;;;;;;;;;;;;;;;;;;4993978;28;19914;-81
2022/09/15 03:22:16;;;;;;;;;;;;;;;;;;4992839;28;20258;-80
2022/09/15 03:24:42;;;;;;;;;;;;;;;;;;4993736;28;20025;-78
2022/09/15 03:27:08;;;;;;;;;;;;;;;;;;4993685;28;19949;-79
2022/09/15 03:29:33;;;;;;;;;;;;;;;;;;4993672;28;19914;-81
2022/09/15 03:31:58;;;;;;;;;;;;;;;;;;4992483;28;19918;-82
2022/09/15 03:34:24;;;;;;;;;;;;;;;;;;4992294;28;19988;-78
2022/09/15 03:36:49;;;;;;;;;;;;;;;;;;4993855;28;19914;-81
2022/09/15 03:39:14;;;;;;;;;;;;;;;;;;4992859;28;20012;-80
2022/09/15 03:41:40;;;;;;;;;;;;;;;;;;4993620;28;20392;-81
2022/09/15 03:44:05;;;;;;;;;;;;;;;;;;4993508;28;19914;-81
2022/09/15 03:46:30;;;;;;;;;;;;;;;;;;4993555;28;20273;-80
2022/09/15 03:48:56;;;;;;;;;;;;;;;;;;4993666;28;20008;-81
2022/09/15 03:51:21;;;;;;;;;;;;;;;;;;4993635;28;20354;-80
2022/09/15 03:53:47;;;;;;;;;;;;;;;;;;4993752;28;20328;-79
2022/09/15 03:56:12;;;;;;;;;;;;;;;;;;4993160;28;19996;-79
2022/09/15 03:58:37;;;;;;;;;;;;;;;;;;4994055;28;19925;-79
2022/09/15 04:01:03;;;;;;;;;;;;;;;;;;4993542;28;20289;-79
2022/09/15 04:03:28;;;;;;;;;;;;;;;;;;4993122;28;19921;-80
2022/09/15 04:05:53;;;;;;;;;;;;;;;;;;4993101;28;20434;-80
2022/09/15 04:08:19;;;;;;;;;;;;;;;;;;4992060;28;20436;-78
2022/09/15 04:10:44;;;;;;;;;;;;;;;;;;4985745;28;20329;-77
2022/09/15 04:13:10;;;;;;;;;;;;;;;;;;5003838;28;19921;-78
2022/09/15 04:15:35;;;;;;;;;;;;;;;;;;4992989;28;19993;-80
2022/09/15 04:18:00;;;;;;;;;;;;;;;;;;4992951;28;19914;-81
2022/09/15 04:20:26;;;;;;;;;;;;;;;;;;4993162;28;20396;-79
2022/09/15 04:22:51;;;;;;;;;;;;;;;;;;5000330;28;19961;-79
2022/09/15 04:25:17;;;;;;;;;;;;;;;;;;5001216;28;19937;-78
2022/09/15 04:27:42;;;;;;;;;;;;;;;;;;5001778;28;19922;-80
2022/09/15 04:30:07;;;;;;;;;;;;;;;;;;5003203;28;19918;-80
2022/09/15 04:32:34;;;;;;;;;;;;;;;;;;4984867;28;20440;-80
2022/09/15 04:34:59;;;;;;;;;;;;;;;;;;5010026;28;19969;-78
2022/09/15 04:37:25;;;;;;;;;;;;;;;;;;4991350;28;19929;-80
2022/09/15 04:39:50;;;;;;;;;;;;;;;;;;5008245;28;19920;-81
2022/09/15 04:42:15;;;;;;;;;;;;;;;;;;5010756;28;19961;-79
2022/09/15 04:44:41;;;;;;;;;;;;;;;;;;5007733;28;19925;-81
2022/09/15 04:47:06;;;;;;;;;;;;;;;;;;5003277;28;19920;-80
2022/09/15 04:49:31;;;;;;;;;;;;;;;;;;4985614;28;19965;-78
2022/09/15 04:51:57;;;;;;;;;;;;;;;;;;4997358;28;19972;-82
2022/09/15 04:54:22;;;;;;;;;;;;;;;;;;4991726;28;20455;-81
2022/09/15 04:56:48;;;;;;;;;;;;;;;;;;4991558;28;19952;-82
2022/09/15 04:59:13;;;;;;;;;;;;;;;;;;4975229;28;19922;-80
2022/09/15 05:01:39;;;;;;;;;;;;;;;;;;4990967;28;20458;-80
2022/09/15 05:04:04;;;;;;;;;;;;;;;;;;4991398;28;19914;-79
2022/09/15 05:06:29;;;;;;;;;;;;;;;;;;4992693;28;19913;-80
2022/09/15 05:08:55;;;;;;;;;;;;;;;;;;4996262;28;19910;-80
2022/09/15 05:11:20;;;;;;;;;;;;;;;;;;4995857;28;20016;-83
2022/09/15 05:13:46;;;;;;;;;;;;;;;;;;4995736;28;19925;-79
2022/09/15 05:16:11;;;;;;;;;;;;;;;;;;4996148;28;19913;-81
2022/09/15 05:18:36;;;;;;;;;;;;;;;;;;4995013;28;20396;-79
2022/09/15 05:21:02;;;;;;;;;;;;;;;;;;4998904;28;19910;-84
2022/09/15 05:23:27;;;;;;;;;;;;;;;;;;4982973;28;19921;-85
2022/09/15 05:25:53;;;;;;;;;;;;;;;;;;4980360;28;19914;-88
2022/09/15 05:28:18;;;;;;;;;;;;;;;;;;4999223;28;19940;-87
2022/09/15 05:30:44;;;;;;;;;;;;;;;;;;4972409;28;19914;-88
2022/09/15 05:33:09;;;;;;;;;;;;;;;;;;4980781;28;19917;-87
2022/09/15 05:35:35;;;;;;;;;;;;;;;;;;4986180;28;19942;-86
2022/09/15 05:38:01;;;;;;;;;;;;;;;;;;4978159;28;20432;-82
2022/09/15 05:40:26;;;;;;;;;;;;;;;;;;4981032;28;19918;-82
2022/09/15 05:42:52;;;;;;;;;;;;;;;;;;4988912;28;19945;-85
2022/09/15 05:45:17;;;;;;;;;;;;;;;;;;4994212;28;20377;-85
2022/09/15 05:47:42;;;;;;;;;;;;;;;;;;4995619;28;20063;-80
2022/09/15 05:50:08;;;;;;;;;;;;;;;;;;4994443;28;19918;-85
2022/09/15 05:52:34;;;;;;;;;;;;;;;;;;4992758;28;20381;-86
2022/09/15 05:54:59;;;;;;;;;;;;;;;;;;4989845;28;19922;-82
2022/09/15 05:57:24;;;;;;;;;;;;;;;;;;4995597;28;19969;-85
2022/09/15 05:59:50;;;;;;;;;;;;;;;;;;4995068;28;19977;-82
2022/09/15 06:02:15;;;;;;;;;;;;;;;;;;4994184;28;19961;-83
2022/09/15 06:04:40;;;;;;;;;;;;;;;;;;4993968;28;20396;-83
2022/09/15 06:07:06;;;;;;;;;;;;;;;;;;4994154;28;20029;-83
2022/09/15 06:09:31;;;;;;;;;;;;;;;;;;4994339;28;19921;-85
2022/09/15 06:11:56;;;;;;;;;;;;;;;;;;4995366;28;19914;-83
2022/09/15 06:14:23;;;;;;;;;;;;;;;;;;4993848;28;20459;-81
2022/09/15 06:16:48;;;;;;;;;;;;;;;;;;4994156;28;19969;-80
2022/09/15 06:19:14;;;;;;;;;;;;;;;;;;4993614;28;19945;-82
2022/09/15 06:21:39;;;;;;;;;;;;;;;;;;4993617;28;19910;-84
2022/09/15 06:24:05;;;;;;;;;;;;;;;;;;4993898;28;19917;-82
2022/09/15 06:26:31;;;;;;;;;;;;;;;;;;4994781;28;19941;-83
2022/09/15 06:28:56;;;;;;;;;;;;;;;;;;4993764;28;20340;-81
2022/09/15 06:31:22;;;;;;;;;;;;;;;;;;4994470;28;19926;-81
2022/09/15 06:33:47;;;;;;;;;;;;;;;;;;4993556;28;19926;-77
2022/09/15 06:36:13;;;;;;;;;;;;;;;;;;4993276;28;19960;-76
2022/09/15 06:38:38;;;;;;;;;;;;;;;;;;4981597;28;20674;-75
2022/09/15 06:41:04;;;;;;;;;;;;;;;;;;4988091;28;19917;-75
2022/09/15 06:43:29;;;;;;;;;;;;;;;;;;4992984;28;19998;-74
2022/09/15 06:45:55;;;;;;;;;;;;;;;;;;4993441;28;19914;-76
2022/09/15 06:48:20;;;;;;;;;;;;;;;;;;4994374;28;20492;-77
2022/09/15 06:50:45;;;;;;;;;;;;;;;;;;4995380;28;19953;-85
2022/09/15 06:53:11;;;;;;;;;;;;;;;;;;4962137;28;19914;-85
2022/09/15 06:55:36;;;;;;;;;;;;;;;;;;4993728;28;20412;-81
2022/09/15 06:58:02;;;;;;;;;;;;;;;;;;5000212;28;19920;-82
2022/09/15 07:00:28;;;;;;;;;;;;;;;;;;4981584;28;19914;-80
2022/09/15 07:02:53;;;;;;;;;;;;;;;;;;4997616;28;19964;-82
2022/09/15 07:05:19;;;;;;;;;;;;;;;;;;4997970;28;19914;-81
2022/09/15 07:07:45;;;;;;;;;;;;;;;;;;4993264;28;19960;-86
2022/09/15 07:10:10;;;;;;;;;;;;;;;;;;4992063;28;20376;-79
2022/09/15 07:12:36;;;;;;;;;;;;;;;;;;4993397;28;19913;-77
2022/09/15 07:15:01;;;;;;;;;;;;;;;;;;4988655;28;19922;-75
2022/09/15 07:17:26;;;;;;;;;;;;;;;;;;4993435;28;20361;-75
2022/09/15 07:19:52;;;;;;;;;;;;;;;;;;4993788;28;20411;-76
2022/09/15 07:22:17;;;;;;;;;;;;;;;;;;4993208;28;19924;-76
2022/09/15 07:24:42;;;;;;;;;;;;;;;;;;4993865;28;19964;-77
2022/09/15 07:27:08;;;;;;;;;;;;;;;;;;4992167;28;19918;-78
2022/09/15 07:29:34;;;;;;;;;;;;;;;;;;4990848;28;19983;-77
2022/09/15 07:32:08;;;;;;;;;;;;;;;;;;5002208;23;19933;-78
2022/09/15 07:34:33;;;;;;;;;;;;;;;;;;4983775;28;20084;-77
2022/09/15 07:36:59;;;;;;;;;;;;;;;;;;4991384;28;20412;-79
2022/09/15 07:39:24;;;;;;;;;;;;;;;;;;4992231;28;20393;-78
2022/09/15 07:41:50;;;;;;;;;;;;;;;;;;4971664;28;20289;-78
2022/09/15 07:44:15;;;;;;;;;;;;;;;;;;4973748;28;19913;-78
2022/09/15 07:46:40;;;;;;;;;;;;;;;;;;4963107;28;19922;-78
2022/09/15 07:49:07;;;;;;;;;;;;;;;;;;4987005;28;19913;-78
2022/09/15 07:51:32;;;;;;;;;;;;;;;;;;4991584;28;19921;-78
2022/09/15 07:53:57;;;;;;;;;;;;;;;;;;4991738;28;19918;-78
2022/09/15 07:56:23;;;;;;;;;;;;;;;;;;4992145;28;20444;-79
2022/09/15 07:58:48;;;;;;;;;;;;;;;;;;4993229;28;20336;-78
2022/09/15 08:01:14;;;;;;;;;;;;;;;;;;4993410;28;19961;-79
2022/09/15 08:03:40;;;;;;;;;;;;;;;;;;4989767;28;20000;-79
2022/09/15 08:06:06;;;;;;;;;;;;;;;;;;4985492;28;19914;-79
2022/09/15 08:08:31;;;;;;;;;;;;;;;;;;4972423;28;19918;-79
2022/09/15 08:10:56;;;;;;;;;;;;;;;;;;4991449;28;19914;-78
2022/09/15 08:13:23;;;;;;;;;;;;;;;;;;4997028;28;20005;-79
2022/09/15 08:15:48;;;;;;;;;;;;;;;;;;4991628;28;19913;-78
2022/09/15 08:18:14;;;;;;;;;;;;;;;;;;4976215;28;20265;-79
2022/09/15 08:20:39;;;;;;;;;;;;;;;;;;4987867;28;19936;-78
2022/09/15 08:23:04;;;;;;;;;;;;;;;;;;4991663;28;19976;-77
2022/09/15 08:25:30;;;;;;;;;;;;;;;;;;4992586;28;19998;-78
2022/09/15 08:27:55;;;;;;;;;;;;;;;;;;4993036;28;19937;-81
2022/09/15 08:30:21;;;;;;;;;;;;;;;;;;4989719;28;20016;-81
2022/09/15 08:32:46;;;;;;;;;;;;;;;;;;4983699;28;19918;-80
2022/09/15 08:35:13;;;;;;;;;;;;;;;;;;4989743;28;20577;-81
2022/09/15 08:37:39;;;;;;;;;;;;;;;;;;4975977;28;20328;-79
2022/09/15 08:40:04;;;;;;;;;;;;;;;;;;4976559;28;19920;-79
2022/09/15 08:42:30;;;;;;;;;;;;;;;;;;4995227;28;20432;-79
2022/09/15 08:44:55;;;;;;;;;;;;;;;;;;4992375;28;19921;-80
2022/09/15 08:47:21;;;;;;;;;;;;;;;;;;4989626;28;20264;-78
2022/09/15 08:49:46;;;;;;;;;;;;;;;;;;4991735;28;20336;-78
2022/09/15 08:52:11;;;;;;;;;;;;;;;;;;4990632;28;19914;-78
2022/09/15 08:54:37;;;;;;;;;;;;;;;;;;4989191;28;19917;-78
2022/09/15 08:57:02;;;;;;;;;;;;;;;;;;4990864;28;20328;-79
2022/09/15 08:59:28;;;;;;;;;;;;;;;;;;4992350;28;20311;-79
2022/09/15 09:01:53;;;;;;;;;;;;;;;;;;4991172;28;19913;-78
2022/09/15 09:04:18;;;;;;;;;;;;;;;;;;4992327;28;19917;-78
2022/09/15 09:06:44;;;;;;;;;;;;;;;;;;4991269;28;20375;-79
2022/09/15 09:09:09;;;;;;;;;;;;;;;;;;4992601;28;20033;-79
2022/09/15 09:11:34;;;;;;;;;;;;;;;;;;4992482;28;20300;-77
2022/09/15 09:14:00;;;;;;;;;;;;;;;;;;4992216;28;19918;-77
2022/09/15 09:16:28;;;;;;;;;;;;;;;;;;4992671;28;19914;-77
2022/09/15 09:18:53;;;;;;;;;;;;;;;;;;4991316;28;19922;-78
2022/09/15 09:21:19;;;;;;;;;;;;;;;;;;4990688;28;19960;-79
2022/09/15 09:23:44;;;;;;;;;;;;;;;;;;4990770;28;19914;-77
2022/09/15 09:26:09;;;;;;;;;;;;;;;;;;4984843;28;19914;-78
2022/09/15 09:28:35;;;;;;;;;;;;;;;;;;4991233;28;19933;-78
2022/09/15 09:31:05;;;;;;;;;;;;;;;;;;4990083;28;20423;-76
2022/09/15 09:33:30;;;;;;;;;;;;;;;;;;4973977;28;19914;-77
2022/09/15 09:35:56;;;;;;;;;;;;;;;;;;4990750;28;20383;-78
2022/09/15 09:38:21;;;;;;;;;;;;;;;;;;4990985;28;19945;-79
2022/09/15 09:40:47;;;;;;;;;;;;;;;;;;4991890;28;19921;-79
2022/09/15 09:43:12;;;;;;;;;;;;;;;;;;4975421;28;19913;-79
2022/09/15 09:45:37;;;;;;;;;;;;;;;;;;4992545;28;20011;-79
2022/09/15 09:48:03;;;;;;;;;;;;;;;;;;4992529;28;19980;-79
2022/09/15 09:50:29;;;;;;;;;;;;;;;;;;4990706;28;19922;-79
2022/09/15 09:52:54;;;;;;;;;;;;;;;;;;4989521;28;19985;-78
2022/09/15 09:55:19;;;;;;;;;;;;;;;;;;4995931;28;20013;-78
2022/09/15 09:57:45;;;;;;;;;;;;;;;;;;4992230;28;20060;-78
2022/09/15 10:00:10;;;;;;;;;;;;;;;;;;5004414;28;19914;-78
2022/09/15 10:02:36;;;;;;;;;;;;;;;;;;5001691;28;19913;-78
2022/09/15 10:05:01;;;;;;;;;;;;;;;;;;5003448;28;19913;-78
2022/09/15 10:07:26;;;;;;;;;;;;;;;;;;5002617;28;19914;-77
2022/09/15 10:09:52;;;;;;;;;;;;;;;;;;4993398;28;19918;-77
2022/09/15 10:12:17;;;;;;;;;;;;;;;;;;4994998;28;20005;-77
2022/09/15 10:14:44;;;;;;;;;;;;;;;;;;4994716;28;20417;-77
2022/09/15 10:17:09;;;;;;;;;;;;;;;;;;4994753;28;20368;-78
2022/09/15 10:19:35;;;;;;;;;;;;;;;;;;4995026;28;19918;-78
2022/09/15 10:22:00;;;;;;;;;;;;;;;;;;4994893;28;19910;-77
2022/09/15 10:24:26;;;;;;;;;;;;;;;;;;4994768;28;19914;-77
2022/09/15 10:26:51;;;;;;;;;;;;;;;;;;4995291;28;19917;-77
2022/09/15 10:29:16;;;;;;;;;;;;;;;;;;4993281;28;19948;-77
2022/09/15 10:31:43;;;;;;;;;;;;;;;;;;4979168;28;20037;-77
2022/09/15 10:34:08;;;;;;;;;;;;;;;;;;4993992;28;20345;-77
2022/09/15 10:36:34;;;;;;;;;;;;;;;;;;4993048;28;19982;-77
2022/09/15 10:38:59;;;;;;;;;;;;;;;;;;4993089;28;19914;-77
2022/09/15 10:41:24;;;;;;;;;;;;;;;;;;4990811;28;20435;-77
2022/09/15 10:43:50;;;;;;;;;;;;;;;;;;4986761;28;19914;-77
2022/09/15 10:46:15;;;;;;;;;;;;;;;;;;4993745;28;19909;-77
2022/09/15 10:48:40;;;;;;;;;;;;;;;;;;4960379;28;19987;-77
2022/09/15 10:51:06;;;;;;;;;;;;;;;;;;4993975;28;20333;-77
2022/09/15 10:53:31;;;;;;;;;;;;;;;;;;4992467;28;20367;-77
2022/09/15 10:55:56;;;;;;;;;;;;;;;;;;4994430;28;19914;-77
2022/09/15 10:58:22;;;;;;;;;;;;;;;;;;4989638;28;20033;-77
2022/09/15 11:00:47;;;;;;;;;;;;;;;;;;4993031;28;19949;-77
2022/09/15 11:03:12;;;;;;;;;;;;;;;;;;4994463;28;20269;-77
2022/09/15 11:05:38;;;;;;;;;;;;;;;;;;4992538;28;19969;-77
2022/09/15 11:08:35;;;;;;;;;;;;;;;;;;4994154;28;20001;-77
2022/09/15 11:11:00;;;;;;;;;;;;;;;;;;4993830;28;19961;-77
2022/09/15 11:13:25;;;;;;;;;;;;;;;;;;4992025;28;19963;-78
2022/09/15 11:15:51;;;;;;;;;;;;;;;;;;4993618;28;19914;-77
2022/09/15 11:18:16;;;;;;;;;;;;;;;;;;4993398;28;19917;-78
2022/09/15 11:20:42;;;;;;;;;;;;;;;;;;4992130;28;20467;-78
2022/09/15 11:23:07;;;;;;;;;;;;;;;;;;4992112;28;19917;-77
2022/09/15 11:25:34;;;;;;;;;;;;;;;;;;4992620;28;19921;-78
2022/09/15 11:27:59;;;;;;;;;;;;;;;;;;4993462;28;19913;-77
2022/09/15 11:30:25;;;;;;;;;;;;;;;;;;4993347;28;19957;-77
2022/09/15 11:32:50;;;;;;;;;;;;;;;;;;4993334;28;20326;-77
2022/09/15 11:35:16;;;;;;;;;;;;;;;;;;4992216;28;19917;-78
2022/09/15 11:37:41;;;;;;;;;;;;;;;;;;4993526;28;19924;-77
2022/09/15 11:40:07;;;;;;;;;;;;;;;;;;4993602;28;19917;-78
2022/09/15 11:42:33;;;;;;;;;;;;;;;;;;4976455;28;19967;-78
2022/09/15 11:44:58;;;;;;;;;;;;;;;;;;4998829;28;19917;-79
2022/09/15 11:47:23;;;;;;;;;;;;;;;;;;4987145;28;19924;-79
2022/09/15 11:49:49;;;;;;;;;;;;;;;;;;4989192;28;19914;-79
2022/09/15 11:52:15;;;;;;;;;;;;;;;;;;5003545;28;19925;-80
2022/09/15 11:54:40;;;;;;;;;;;;;;;;;;5002759;28;20443;-79
2022/09/15 11:57:05;;;;;;;;;;;;;;;;;;5003592;28;19936;-79
2022/09/15 11:59:31;;;;;;;;;;;;;;;;;;5005105;28;19968;-79
2022/09/15 12:01:58;;;;;;;;;;;;;;;;;;5001113;28;19914;-78
2022/09/15 12:04:23;;;;;;;;;;;;;;;;;;4998081;28;19921;-76
2022/09/15 12:06:49;;;;;;;;;;;;;;;;;;4991285;28;19914;-77
2022/09/15 12:09:15;;;;;;;;;;;;;;;;;;4992537;28;19913;-76
2022/09/15 12:11:40;;;;;;;;;;;;;;;;;;4992565;28;20324;-77
2022/09/15 12:14:05;;;;;;;;;;;;;;;;;;4992047;28;19965;-77
2022/09/15 12:16:31;;;;;;;;;;;;;;;;;;4990825;28;19973;-76
2022/09/15 12:18:56;;;;;;;;;;;;;;;;;;4991157;28;20013;-77
2022/09/15 12:21:22;;;;;;;;;;;;;;;;;;4991936;28;19940;-75
2022/09/15 12:23:48;;;;;;;;;;;;;;;;;;4992083;28;19914;-76
2022/09/15 12:26:13;;;;;;;;;;;;;;;;;;4991571;28;19996;-77
2022/09/15 12:28:38;;;;;;;;;;;;;;;;;;4963286;28;19945;-77
2022/09/15 12:31:04;;;;;;;;;;;;;;;;;;4984187;28;20340;-77
2022/09/15 12:33:30;;;;;;;;;;;;;;;;;;4990518;28;19914;-76
2022/09/15 12:35:55;;;;;;;;;;;;;;;;;;4986888;28;19961;-76
2022/09/15 12:38:21;;;;;;;;;;;;;;;;;;4990621;28;19924;-76
2022/09/15 12:40:46;;;;;;;;;;;;;;;;;;4991777;28;19956;-76
2022/09/15 12:43:12;;;;;;;;;;;;;;;;;;5002780;28;19963;-77
2022/09/15 12:45:37;;;;;;;;;;;;;;;;;;4998489;28;19913;-77
2022/09/15 12:48:03;;;;;;;;;;;;;;;;;;5002921;28;19964;-77
2022/09/15 12:50:28;;;;;;;;;;;;;;;;;;4991977;28;19914;-76
2022/09/15 12:52:54;;;;;;;;;;;;;;;;;;4991937;28;19920;-78
2022/09/15 12:55:19;;;;;;;;;;;;;;;;;;4988629;28;19950;-77
2022/09/15 12:57:45;;;;;;;;;;;;;;;;;;4991910;28;20292;-77
2022/09/15 13:00:10;;;;;;;;;;;;;;;;;;4990686;28;19914;-77
2022/09/15 13:02:36;;;;;;;;;;;;;;;;;;4991446;28;19914;-78
2022/09/15 13:05:01;;;;;;;;;;;;;;;;;;4991834;28;19917;-77
2022/09/15 13:07:26;;;;;;;;;;;;;;;;;;4974234;28;19917;-77
2022/09/15 13:09:52;;;;;;;;;;;;;;;;;;4991713;28;19914;-77
2022/09/15 13:12:17;;;;;;;;;;;;;;;;;;4987501;28;20004;-77
2022/09/15 13:14:43;;;;;;;;;;;;;;;;;;4989683;28;20333;-78
2022/09/15 13:17:09;;;;;;;;;;;;;;;;;;4991050;28;19924;-77
2022/09/15 13:19:45;;;;;;;;;;;;;;;;;;4990692;28;19910;-80
2022/09/15 13:22:10;;;;;;;;;;;;;;;;;;4991561;28;19960;-78
2022/09/15 13:24:37;;;;;;;;;;;;;;;;;;4989710;28;20440;-79
2022/09/15 13:27:02;;;;;;;;;;;;;;;;;;4973868;28;20383;-78
2022/09/15 13:29:28;;;;;;;;;;;;;;;;;;4993625;28;19913;-79
2022/09/15 13:31:53;;;;;;;;;;;;;;;;;;4995534;28;19924;-78
2022/09/15 13:34:19;;;;;;;;;;;;;;;;;;4994918;28;20298;-78
2022/09/15 13:36:44;;;;;;;;;;;;;;;;;;4995887;28;19921;-78
2022/09/15 13:39:09;;;;;;;;;;;;;;;;;;4994575;28;19914;-78
2022/09/15 13:41:35;;;;;;;;;;;;;;;;;;4995133;28;19917;-78
2022/09/15 13:44:00;;;;;;;;;;;;;;;;;;4989321;28;19921;-78
2022/09/15 13:46:27;;;;;;;;;;;;;;;;;;4995139;28;19913;-78
2022/09/15 13:48:53;;;;;;;;;;;;;;;;;;4977539;28;19987;-79
2022/09/15 13:51:18;;;;;;;;;;;;;;;;;;4994841;28;19918;-79
2022/09/15 13:53:44;;;;;;;;;;;;;;;;;;4995172;28;19921;-78
2022/09/15 13:56:09;;;;;;;;;;;;;;;;;;4994075;28;20407;-79
2022/09/15 13:58:35;;;;;;;;;;;;;;;;;;4995100;28;19910;-79
2022/09/15 14:01:01;;;;;;;;;;;;;;;;;;4993572;28;20400;-78
2022/09/15 14:03:26;;;;;;;;;;;;;;;;;;4995216;28;19914;-79
2022/09/15 14:05:52;;;;;;;;;;;;;;;;;;4991093;28;19949;-78
2022/09/15 14:08:17;;;;;;;;;;;;;;;;;;4979070;28;19980;-79
2022/09/15 14:10:42;;;;;;;;;;;;;;;;;;4995794;28;19918;-78
2022/09/15 14:13:08;;;;;;;;;;;;;;;;;;4993236;28;20002;-78
2022/09/15 14:15:33;;;;;;;;;;;;;;;;;;4994584;28;19925;-78
2022/09/15 14:17:59;;;;;;;;;;;;;;;;;;4994282;28;20269;-78
2022/09/15 14:20:24;;;;;;;;;;;;;;;;;;4994505;28;19921;-78
2022/09/15 14:22:50;;;;;;;;;;;;;;;;;;4991905;28;19914;-77
2022/09/15 14:25:15;;;;;;;;;;;;;;;;;;4991879;28;19914;-78
2022/09/15 14:27:41;;;;;;;;;;;;;;;;;;4994774;28;19925;-78
2022/09/15 14:30:06;;;;;;;;;;;;;;;;;;4995238;28;19913;-78
2022/09/15 14:32:32;;;;;;;;;;;;;;;;;;4994363;28;20373;-79
2022/09/15 14:34:57;;;;;;;;;;;;;;;;;;4995088;28;19964;-78
2022/09/15 14:37:26;;;;;;;;;;;;;;;;;;4995194;28;19921;-78
2022/09/15 14:39:55;;;;;;;;;;;;;;;;;;4993523;28;19917;-78
2022/09/15 14:42:21;;;;;;;;;;;;;;;;;;4992246;28;19910;-78
2022/09/15 14:44:46;;;;;;;;;;;;;;;;;;4993640;28;19917;-78
2022/09/15 14:47:12;;;;;;;;;;;;;;;;;;4989944;28;19989;-78
2022/09/15 14:49:37;;;;;;;;;;;;;;;;;;4992858;28;19920;-79
2022/09/15 14:52:02;;;;;;;;;;;;;;;;;;4992947;28;19952;-79
2022/09/15 14:54:28;;;;;;;;;;;;;;;;;;4976277;28;19948;-79
2022/09/15 14:56:53;;;;;;;;;;;;;;;;;;4994023;28;19914;-78
2022/09/15 14:59:19;;;;;;;;;;;;;;;;;;4976669;28;19917;-79
2022/09/15 15:01:44;;;;;;;;;;;;;;;;;;4992162;28;20320;-79
2022/09/15 15:04:09;;;;;;;;;;;;;;;;;;4990895;28;19957;-79
2022/09/15 15:06:36;;;;;;;;;;;;;;;;;;4992410;28;20399;-79
2022/09/15 15:09:01;;;;;;;;;;;;;;;;;;4992874;28;19992;-78
2022/09/15 15:11:26;;;;;;;;;;;;;;;;;;4993694;28;20007;-79
2022/09/15 15:13:52;;;;;;;;;;;;;;;;;;4991936;28;20476;-78
2022/09/15 15:16:17;;;;;;;;;;;;;;;;;;4997484;28;19921;-79
2022/09/15 15:18:50;;;;;;;;;;;;;;;;;;5003283;28;19921;-79
2022/09/15 15:21:15;;;;;;;;;;;;;;;;;;4996680;28;19914;-79
2022/09/15 15:23:41;;;;;;;;;;;;;;;;;;4975644;28;20041;-78
2022/09/15 15:26:06;;;;;;;;;;;;;;;;;;4991811;28;19972;-78
2022/09/15 15:28:32;;;;;;;;;;;;;;;;;;4993113;28;19941;-78
2022/09/15 15:30:57;;;;;;;;;;;;;;;;;;4992705;28;20013;-78
2022/09/15 15:33:22;;;;;;;;;;;;;;;;;;4959023;28;19914;-78
2022/09/15 15:35:48;;;;;;;;;;;;;;;;;;4991583;28;19924;-78
2022/09/15 15:38:14;;;;;;;;;;;;;;;;;;4993459;28;19914;-79
2022/09/15 15:40:39;;;;;;;;;;;;;;;;;;4991789;28;20013;-78
2022/09/15 15:43:04;;;;;;;;;;;;;;;;;;4975593;28;19920;-79
2022/09/15 15:45:30;;;;;;;;;;;;;;;;;;4991822;28;19921;-78
2022/09/15 15:47:55;;;;;;;;;;;;;;;;;;4992063;28;20323;-78
2022/09/15 15:50:21;;;;;;;;;;;;;;;;;;4990724;28;20347;-78
2022/09/15 15:52:46;;;;;;;;;;;;;;;;;;4991647;28;19914;-78
2022/09/15 15:55:11;;;;;;;;;;;;;;;;;;4991579;28;20364;-78
2022/09/15 15:57:37;;;;;;;;;;;;;;;;;;4993230;28;20304;-79
2022/09/15 16:00:02;;;;;;;;;;;;;;;;;;4991565;28;19967;-78
2022/09/15 16:02:29;;;;;;;;;;;;;;;;;;4992690;28;19914;-78
2022/09/15 16:04:55;;;;;;;;;;;;;;;;;;4991785;28;20431;-78
2022/09/15 16:07:20;;;;;;;;;;;;;;;;;;4988715;28;19949;-78
2022/09/15 16:09:46;;;;;;;;;;;;;;;;;;4992558;28;19914;-78
2022/09/15 16:12:11;;;;;;;;;;;;;;;;;;4992565;28;20308;-77
2022/09/15 16:14:36;;;;;;;;;;;;;;;;;;4992305;28;19972;-78
2022/09/15 16:17:02;;;;;;;;;;;;;;;;;;4992546;28;19928;-78
2022/09/15 16:19:27;;;;;;;;;;;;;;;;;;4991672;28;19964;-79
2022/09/15 16:21:52;;;;;;;;;;;;;;;;;;4992769;28;20304;-79
2022/09/15 16:24:18;;;;;;;;;;;;;;;;;;4975934;28;19930;-78
2022/09/15 16:26:44;;;;;;;;;;;;;;;;;;4977236;28;19914;-77
2022/09/15 16:29:09;;;;;;;;;;;;;;;;;;4994801;28;20365;-78
2022/09/15 16:31:34;;;;;;;;;;;;;;;;;;4992769;28;19918;-80
2022/09/15 16:34:00;;;;;;;;;;;;;;;;;;4988959;28;20423;-78